Time;durP1;ratioP1;P1;durP2;ratioP2;P2;SDS_P1;SDS_P2;PMS_P1;PMS_P2;Temp;Humidity;BMP_temperature;BMP_pressure;BME280_temperature;BME280_humidity;BME280_pressure;Samples;Min_cycle;Max_cycle;Signal;HPM_P1;HPM_P2
2021/11/14 00:01:23;;;;;;;27.03;16.50;;;11.70;99.90;;;;;;4982673;28;20209;-52
2021/11/14 00:03:51;;;;;;;24.37;16.40;;;11.70;99.90;;;;;;4978199;28;20232;-51
2021/11/14 00:06:20;;;;;;;25.60;16.20;;;11.70;99.90;;;;;;4964333;28;20195;-52
2021/11/14 00:08:49;;;;;;;25.53;16.53;;;11.60;99.90;;;;;;4979117;28;20305;-52
2021/11/14 00:11:18;;;;;;;24.43;16.27;;;11.50;99.90;;;;;;4980070;28;20294;-52
2021/11/14 00:13:47;;;;;;;25.77;16.27;;;11.50;99.90;;;;;;4981782;28;20235;-53
2021/11/14 00:16:16;;;;;;;24.83;16.13;;;11.50;99.90;;;;;;4980272;28;20264;-52
2021/11/14 00:18:44;;;;;;;26.53;15.67;;;11.50;99.90;;;;;;4980294;28;20234;-53
2021/11/14 00:21:13;;;;;;;22.53;15.70;;;11.60;99.90;;;;;;4982084;28;20236;-52
2021/11/14 00:23:40;;;;;;;23.50;14.03;;;11.60;99.90;;;;;;4981441;28;20233;-51
2021/11/14 00:26:08;;;;;;;25.40;14.70;;;11.50;99.90;;;;;;4981524;28;20325;-51
2021/11/14 00:28:35;;;;;;;24.53;14.73;;;11.50;99.90;;;;;;4977889;28;20313;-52
2021/11/14 00:31:04;;;;;;;28.43;15.97;;;11.60;99.90;;;;;;4979211;28;20336;-51
2021/11/14 00:33:32;;;;;;;25.07;14.87;;;11.60;99.90;;;;;;4980619;28;20285;-51
2021/11/14 00:35:59;;;;;;;22.47;14.70;;;11.50;99.90;;;;;;4982319;28;20222;-52
2021/11/14 00:38:26;;;;;;;24.87;15.73;;;11.50;99.90;;;;;;4980143;28;20200;-52
2021/11/14 00:40:54;;;;;;;22.33;14.70;;;11.60;99.90;;;;;;4980553;28;20305;-52
2021/11/14 00:43:21;;;;;;;22.43;14.73;;;11.50;99.90;;;;;;4977627;28;20206;-51
2021/11/14 00:45:47;;;;;;;26.67;15.50;;;11.50;99.90;;;;;;4979397;28;20289;-52
2021/11/14 00:48:16;;;;;;;23.03;15.47;;;11.40;99.90;;;;;;4979237;28;20293;-52
2021/11/14 00:50:45;;;;;;;25.63;16.43;;;11.30;99.90;;;;;;4981152;28;20203;-52
2021/11/14 00:53:20;;;;;;;21.57;14.23;;;11.40;99.90;;;;;;4981337;28;20288;-54
2021/11/14 00:55:48;;;;;;;24.33;15.43;;;11.40;99.90;;;;;;4978753;28;20304;-53
2021/11/14 00:58:16;;;;;;;25.13;16.27;;;11.40;99.90;;;;;;4981184;28;20265;-52
2021/11/14 01:00:43;;;;;;;27.50;16.27;;;11.40;99.90;;;;;;4980045;28;20876;-51
2021/11/14 01:03:10;;;;;;;28.47;16.47;;;11.30;99.90;;;;;;4981275;28;20204;-51
2021/11/14 01:05:41;;;;;;;24.93;15.77;;;11.40;99.90;;;;;;4982092;28;20260;-52
2021/11/14 01:08:10;;;;;;;26.43;16.00;;;11.40;99.90;;;;;;4979318;28;20266;-50
2021/11/14 01:10:41;;;;;;;26.57;16.43;;;11.40;99.90;;;;;;4980102;28;20237;-54
2021/11/14 01:13:08;;;;;;;28.20;16.93;;;11.40;99.90;;;;;;4978690;28;20310;-53
2021/11/14 01:15:37;;;;;;;25.70;16.13;;;11.30;99.90;;;;;;4980966;28;20194;-51
2021/11/14 01:18:04;;;;;;;25.23;16.57;;;11.30;99.90;;;;;;4978001;28;20202;-52
2021/11/14 01:20:35;;;;;;;30.40;18.57;;;11.30;99.90;;;;;;4980282;28;20213;-52
2021/11/14 01:23:05;;;;;;;30.80;18.57;;;11.20;99.90;;;;;;4982109;28;20210;-51
2021/11/14 01:25:32;;;;;;;31.43;19.27;;;11.20;99.90;;;;;;4980904;28;20251;-52
2021/11/14 01:27:59;;;;;;;36.73;21.40;;;11.20;99.90;;;;;;4978856;28;20223;-51
2021/11/14 01:30:30;;;;;;;33.73;21.40;;;11.30;99.90;;;;;;4981469;28;20620;-52
2021/11/14 01:32:59;;;;;;;34.70;21.97;;;11.30;99.90;;;;;;4978403;28;20210;-52
2021/11/14 01:35:26;;;;;;;37.73;21.10;;;11.20;99.90;;;;;;4976620;28;20256;-54
2021/11/14 01:37:54;;;;;;;32.57;19.50;;;11.20;99.90;;;;;;4979282;28;20203;-52
2021/11/14 01:40:28;;;;;;;32.57;19.47;;;11.20;99.90;;;;;;4978816;28;20226;-51
2021/11/14 01:42:55;;;;;;;29.67;18.20;;;11.20;99.90;;;;;;4978348;28;20289;-51
2021/11/14 01:45:22;;;;;;;31.57;18.63;;;11.10;99.90;;;;;;4959638;28;20256;-53
2021/11/14 01:47:49;;;;;;;30.90;18.83;;;11.00;99.90;;;;;;4979880;28;20250;-53
2021/11/14 01:50:18;;;;;;;28.03;17.97;;;11.00;99.90;;;;;;4979716;28;20206;-51
2021/11/14 01:52:49;;;;;;;26.77;17.23;;;10.90;99.90;;;;;;4980669;28;20608;-52
2021/11/14 01:55:19;;;;;;;27.90;17.07;;;11.00;99.90;;;;;;4978543;28;20311;-53
2021/11/14 01:57:46;;;;;;;27.90;18.37;;;11.00;99.90;;;;;;4976145;28;20206;-54
2021/11/14 02:00:22;;;;;;;30.20;18.47;;;10.90;99.90;;;;;;4979172;28;20249;-53
2021/11/14 02:02:49;;;;;;;29.47;17.33;;;10.90;99.90;;;;;;4979712;28;20209;-52
2021/11/14 02:05:17;;;;;;;27.07;17.90;;;11.00;99.90;;;;;;4976396;28;20308;-51
2021/11/14 02:07:44;;;;;;;26.03;16.60;;;10.80;99.90;;;;;;4978014;28;20233;-54
2021/11/14 02:10:11;;;;;;;25.53;16.37;;;10.80;99.90;;;;;;4979725;28;20238;-51
2021/11/14 02:12:38;;;;;;;25.83;16.23;;;10.90;99.90;;;;;;4976239;28;20215;-51
2021/11/14 02:15:05;;;;;;;25.27;16.13;;;10.90;99.90;;;;;;4976331;28;20202;-52
2021/11/14 02:17:33;;;;;;;24.43;15.43;;;10.90;99.90;;;;;;4979419;28;20206;-51
2021/11/14 02:20:00;;;;;;;24.57;16.27;;;10.80;99.90;;;;;;4979798;28;20277;-52
2021/11/14 02:22:27;;;;;;;26.10;17.23;;;10.80;99.90;;;;;;4976669;28;20289;-53
2021/11/14 02:24:54;;;;;;;26.60;16.77;;;10.70;99.90;;;;;;4979483;28;20269;-52
2021/11/14 02:27:21;;;;;;;25.63;15.67;;;10.90;99.90;;;;;;4978934;28;20221;-53
2021/11/14 02:29:48;;;;;;;25.07;16.67;;;10.90;99.90;;;;;;4980371;28;20264;-52
2021/11/14 02:32:15;;;;;;;25.73;16.87;;;10.80;99.90;;;;;;4979329;28;20566;-52
2021/11/14 02:34:57;;;;;;;22.83;14.83;;;10.90;99.90;;;;;;4981719;28;20256;-53
2021/11/14 02:37:23;;;;;;;27.20;16.60;;;10.80;99.90;;;;;;4979727;28;20219;-52
2021/11/14 02:39:50;;;;;;;27.07;16.17;;;10.70;99.90;;;;;;4978128;28;20215;-54
2021/11/14 02:42:17;;;;;;;22.97;15.73;;;10.80;99.90;;;;;;4961956;28;20646;-53
2021/11/14 02:44:45;;;;;;;26.03;16.13;;;10.80;99.90;;;;;;4978034;28;20209;-53
2021/11/14 02:47:12;;;;;;;27.97;17.33;;;10.80;99.90;;;;;;4978527;28;20204;-54
2021/11/14 02:49:39;;;;;;;25.17;17.17;;;11.00;99.90;;;;;;4978069;28;20206;-54
2021/11/14 02:52:06;;;;;;;27.67;16.30;;;10.90;99.90;;;;;;4976505;28;20232;-53
2021/11/14 02:54:33;;;;;;;24.83;15.60;;;10.90;99.90;;;;;;4980708;28;20206;-53
2021/11/14 02:57:00;;;;;;;27.10;16.70;;;10.90;99.90;;;;;;4977201;28;20190;-53
2021/11/14 02:59:27;;;;;;;28.10;17.30;;;11.00;99.90;;;;;;4979042;28;20650;-52
2021/11/14 03:01:55;;;;;;;25.63;15.63;;;11.00;99.90;;;;;;4977132;28;20296;-53
2021/11/14 03:04:26;;;;;;;23.77;15.80;;;10.90;99.90;;;;;;4977763;28;20204;-52
2021/11/14 03:06:55;;;;;;;25.87;16.67;;;10.80;99.90;;;;;;4979181;28;20257;-54
2021/11/14 03:09:23;;;;;;;24.70;16.23;;;10.90;99.90;;;;;;4976738;28;20217;-51
2021/11/14 03:11:52;;;;;;;24.40;17.07;;;11.00;99.90;;;;;;4981415;28;20215;-52
2021/11/14 03:14:19;;;;;;;22.67;15.37;;;11.00;99.90;;;;;;4978705;28;20255;-53
2021/11/14 03:16:46;;;;;;;27.30;16.17;;;10.90;99.90;;;;;;4979940;28;20215;-52
2021/11/14 03:19:14;;;;;;;24.53;15.60;;;11.00;99.90;;;;;;4979571;28;20670;-52
2021/11/14 03:21:41;;;;;;;26.10;15.47;;;11.00;99.90;;;;;;4978249;28;20215;-54
2021/11/14 03:24:08;;;;;;;23.23;15.30;;;11.00;99.90;;;;;;4960737;28;20207;-52
2021/11/14 03:26:35;;;;;;;23.10;14.37;;;10.90;99.90;;;;;;4977791;28;20621;-54
2021/11/14 03:29:02;;;;;;;23.97;14.90;;;11.00;99.90;;;;;;4980344;28;20216;-53
2021/11/14 03:31:30;;;;;;;23.17;15.57;;;11.00;99.90;;;;;;4978324;28;20332;-53
2021/11/14 03:33:57;;;;;;;21.57;14.67;;;11.00;99.90;;;;;;4978544;28;20229;-53
2021/11/14 03:36:26;;;;;;;22.73;14.73;;;11.00;99.90;;;;;;4976875;28;20238;-52
2021/11/14 03:38:59;;;;;;;19.57;13.73;;;10.80;99.90;;;;;;4978120;28;20200;-52
2021/11/14 03:41:32;;;;;;;21.47;14.83;;;10.80;99.90;;;;;;4978680;28;20203;-52
2021/11/14 03:43:59;;;;;;;22.30;15.17;;;10.90;99.90;;;;;;4976975;28;20661;-52
2021/11/14 03:46:27;;;;;;;22.33;14.03;;;10.90;99.90;;;;;;4960408;28;20701;-54
2021/11/14 03:48:55;;;;;;;20.97;14.07;;;10.80;99.90;;;;;;4961785;28;20311;-53
2021/11/14 03:51:24;;;;;;;22.53;14.77;;;10.90;99.90;;;;;;4979260;28;20244;-53
2021/11/14 03:53:53;;;;;;;24.10;15.47;;;10.90;99.90;;;;;;4976131;28;20266;-52
2021/11/14 03:56:20;;;;;;;19.90;14.03;;;10.80;99.90;;;;;;4978530;28;20207;-52
2021/11/14 03:58:47;;;;;;;23.80;15.00;;;10.80;99.90;;;;;;4976576;28;20298;-54
2021/11/14 04:01:18;;;;;;;23.20;14.77;;;10.90;99.90;;;;;;4976359;28;20243;-53
2021/11/14 04:03:47;;;;;;;21.37;13.97;;;10.90;99.90;;;;;;4975174;28;20267;-53
2021/11/14 04:06:15;;;;;;;21.97;14.83;;;10.90;99.90;;;;;;4975662;28;20291;-53
2021/11/14 04:08:42;;;;;;;21.33;14.47;;;10.80;99.90;;;;;;4975399;28;20248;-53
2021/11/14 04:11:09;;;;;;;25.07;14.80;;;10.60;99.90;;;;;;4979464;28;20290;-54
2021/11/14 04:13:36;;;;;;;23.70;15.77;;;10.70;99.90;;;;;;4975897;28;20295;-53
2021/11/14 04:16:06;;;;;;;25.73;14.93;;;10.70;99.90;;;;;;4976767;28;20239;-53
2021/11/14 04:18:34;;;;;;;21.83;14.13;;;10.70;99.90;;;;;;4977059;28;20272;-53
2021/11/14 04:21:02;;;;;;;24.03;15.00;;;10.60;99.90;;;;;;4960884;28;20304;-53
2021/11/14 04:23:29;;;;;;;24.00;14.53;;;10.70;99.90;;;;;;4978256;28;20208;-52
2021/11/14 04:25:56;;;;;;;23.90;15.40;;;10.70;99.90;;;;;;4977397;28;21044;-54
2021/11/14 04:28:23;;;;;;;24.30;15.07;;;10.70;99.90;;;;;;4976994;28;20694;-52
2021/11/14 04:30:51;;;;;;;24.97;15.13;;;10.70;99.90;;;;;;4977334;28;20278;-52
2021/11/14 04:33:20;;;;;;;23.20;13.90;;;10.60;99.90;;;;;;4958591;28;20622;-54
2021/11/14 04:35:48;;;;;;;24.53;15.10;;;10.60;99.90;;;;;;4980020;28;20622;-54
2021/11/14 04:38:15;;;;;;;27.33;16.20;;;10.50;99.90;;;;;;4977857;28;20738;-52
2021/11/14 04:40:43;;;;;;;21.43;14.83;;;10.50;99.90;;;;;;4980911;28;20287;-51
2021/11/14 04:43:12;;;;;;;24.43;15.33;;;10.50;99.90;;;;;;4977432;28;21083;-52
2021/11/14 04:45:40;;;;;;;22.13;15.30;;;10.40;99.90;;;;;;4963633;28;20235;-52
2021/11/14 04:48:07;;;;;;;27.20;15.40;;;10.40;99.90;;;;;;4979643;28;20590;-51
2021/11/14 04:50:35;;;;;;;22.07;14.77;;;10.40;99.90;;;;;;4980801;28;20614;-54
2021/11/14 04:53:04;;;;;;;26.37;15.07;;;10.50;99.90;;;;;;4980035;28;20626;-52
2021/11/14 04:55:33;;;;;;;23.20;15.07;;;10.50;99.90;;;;;;4981105;28;20201;-53
2021/11/14 04:58:00;;;;;;;23.67;15.03;;;10.50;99.90;;;;;;4980270;28;21000;-53
2021/11/14 05:00:50;;;;;;;26.43;15.13;;;10.60;99.90;;;;;;4981580;28;20227;-51
2021/11/14 05:03:18;;;;;;;22.63;14.63;;;10.50;99.90;;;;;;4980904;28;20629;-54
2021/11/14 05:05:45;;;;;;;25.60;16.13;;;10.50;99.90;;;;;;4981175;28;20608;-52
2021/11/14 05:08:12;;;;;;;23.00;14.73;;;10.50;99.90;;;;;;4978732;28;20253;-52
2021/11/14 05:10:40;;;;;;;30.77;15.63;;;10.50;99.90;;;;;;4982160;28;20235;-52
2021/11/14 05:13:07;;;;;;;25.10;16.03;;;10.50;99.90;;;;;;4978101;28;20955;-52
2021/11/14 05:15:34;;;;;;;27.33;15.60;;;10.60;99.90;;;;;;4981424;28;20316;-53
2021/11/14 05:18:01;;;;;;;26.60;15.97;;;10.60;99.90;;;;;;4979966;28;20275;-52
2021/11/14 05:20:34;;;;;;;26.27;16.27;;;10.50;99.90;;;;;;4981656;28;20700;-54
2021/11/14 05:23:01;;;;;;;33.93;17.13;;;10.50;99.90;;;;;;4979249;28;20726;-52
2021/11/14 05:25:28;;;;;;;29.00;16.33;;;10.50;99.90;;;;;;4963643;28;20753;-53
2021/11/14 05:27:56;;;;;;;27.60;16.73;;;10.40;99.90;;;;;;4980617;28;20232;-53
2021/11/14 05:30:24;;;;;;;30.40;16.93;;;10.30;99.90;;;;;;4980194;28;20882;-51
2021/11/14 05:32:50;;;;;;;27.53;15.50;;;10.40;99.90;;;;;;4979207;28;20292;-53
2021/11/14 05:35:17;;;;;;;27.17;15.87;;;10.30;99.90;;;;;;4980718;28;20206;-53
2021/11/14 05:37:44;;;;;;;27.90;15.67;;;10.30;99.90;;;;;;4979518;28;20686;-53
2021/11/14 05:40:11;;;;;;;28.77;16.93;;;10.30;99.90;;;;;;4980051;28;20550;-52
2021/11/14 05:42:39;;;;;;;35.27;17.10;;;10.40;99.90;;;;;;4959701;28;20720;-51
2021/11/14 05:45:07;;;;;;;30.27;17.23;;;10.30;99.90;;;;;;4982274;28;20208;-54
2021/11/14 05:47:34;;;;;;;30.23;17.03;;;10.40;99.90;;;;;;4977283;28;20220;-51
2021/11/14 05:50:01;;;;;;;29.93;18.13;;;10.40;99.90;;;;;;4978536;28;20730;-52
2021/11/14 05:52:28;;;;;;;32.77;17.73;;;10.50;99.90;;;;;;4978127;28;20205;-53
2021/11/14 05:54:55;;;;;;;31.83;18.80;;;10.50;99.90;;;;;;4981244;28;20236;-52
2021/11/14 05:57:22;;;;;;;31.50;17.13;;;10.40;99.90;;;;;;4961219;28;20198;-54
2021/11/14 05:59:57;;;;;;;30.60;18.30;;;10.40;99.90;;;;;;4978751;28;20666;-53
2021/11/14 06:07:29;;;;;;;32.30;16.80;;;10.30;99.90;;;;;;4977458;28;20206;-54
2021/11/14 06:10:00;;;;;;;32.63;17.53;;;10.30;99.90;;;;;;4979657;28;20724;-51
2021/11/14 06:12:28;;;;;;;38.20;18.97;;;10.40;99.90;;;;;;4979076;28;20199;-53
2021/11/14 06:14:55;;;;;;;31.07;18.27;;;10.30;99.90;;;;;;4978771;28;20926;-54
2021/11/14 06:17:22;;;;;;;36.50;18.43;;;10.30;99.90;;;;;;4978450;28;20204;-53
2021/11/14 06:19:49;;;;;;;31.20;18.13;;;10.30;99.90;;;;;;4962083;28;20338;-52
2021/11/14 06:22:17;;;;;;;33.13;18.93;;;10.40;99.90;;;;;;4978950;28;20736;-52
2021/11/14 06:24:45;;;;;;;32.87;17.77;;;10.50;99.90;;;;;;4979810;28;20278;-52
2021/11/14 06:27:13;;;;;;;36.03;18.90;;;10.50;99.90;;;;;;4979327;28;20800;-52
2021/11/14 06:29:40;;;;;;;36.00;18.67;;;10.50;99.90;;;;;;4978517;28;20229;-53
2021/11/14 06:32:07;;;;;;;35.63;19.23;;;10.50;99.90;;;;;;4978082;28;20250;-52
2021/11/14 06:34:35;;;;;;;33.70;17.87;;;10.60;99.90;;;;;;4980061;28;20283;-54
2021/11/14 06:37:03;;;;;;;35.93;19.60;;;10.50;99.90;;;;;;4980767;28;20237;-52
2021/11/14 06:39:30;;;;;;;33.73;17.90;;;10.50;99.90;;;;;;4979698;28;20647;-51
2021/11/14 06:41:57;;;;;;;33.80;18.87;;;10.50;99.90;;;;;;4977503;28;20252;-52
2021/11/14 06:44:24;;;;;;;35.50;18.00;;;10.40;99.90;;;;;;4977161;28;20202;-53
2021/11/14 06:46:51;;;;;;;36.00;18.97;;;10.40;99.90;;;;;;4977142;28;20239;-54
2021/11/14 06:49:18;;;;;;;34.27;18.73;;;10.40;99.90;;;;;;4962236;28;20212;-54
2021/11/14 06:51:45;;;;;;;33.87;18.10;;;10.40;99.90;;;;;;4980173;28;20606;-53
2021/11/14 06:54:11;;;;;;;37.63;19.20;;;10.30;99.90;;;;;;4978910;28;20206;-54
2021/11/14 06:56:38;;;;;;;33.00;19.10;;;10.30;99.90;;;;;;4978145;28;20201;-53
2021/11/14 06:59:05;;;;;;;34.23;19.53;;;10.30;99.90;;;;;;4979379;28;20230;-52
2021/11/14 07:01:32;;;;;;;33.47;18.90;;;10.20;99.90;;;;;;4977976;28;20256;-52
2021/11/14 07:03:59;;;;;;;34.07;18.40;;;10.20;99.90;;;;;;4982684;28;20208;-54
2021/11/14 07:06:26;;;;;;;34.97;19.53;;;10.10;99.90;;;;;;4978516;28;20209;-52
2021/11/14 07:08:53;;;;;;;38.30;19.73;;;10.10;99.90;;;;;;4976670;28;20673;-52
2021/11/14 07:11:20;;;;;;;38.83;20.73;;;10.10;99.90;;;;;;4977320;28;20595;-52
2021/11/14 07:13:47;;;;;;;38.03;20.00;;;10.20;99.90;;;;;;4977216;28;20255;-52
2021/11/14 07:16:15;;;;;;;32.40;18.57;;;10.20;99.90;;;;;;4978131;28;20726;-52
2021/11/14 07:18:41;;;;;;;35.07;19.40;;;10.20;99.90;;;;;;4979181;28;20259;-54
2021/11/14 07:21:08;;;;;;;35.37;18.87;;;10.30;99.90;;;;;;4977652;28;20204;-53
2021/11/14 07:23:35;;;;;;;36.97;19.23;;;10.30;99.90;;;;;;4960259;28;20246;-53
2021/11/14 07:26:04;;;;;;;34.40;19.90;;;10.30;99.90;;;;;;4977354;28;20248;-53
2021/11/14 07:28:31;;;;;;;32.53;19.30;;;10.30;99.90;;;;;;4977673;28;20635;-52
2021/11/14 07:30:57;;;;;;;34.70;20.17;;;10.20;99.90;;;;;;4980045;28;20253;-51
2021/11/14 07:33:24;;;;;;;33.47;19.17;;;10.30;99.90;;;;;;4979132;28;20200;-53
2021/11/14 07:35:51;;;;;;;32.27;17.77;;;10.30;99.90;;;;;;4979037;28;20237;-52
2021/11/14 07:38:18;;;;;;;34.57;19.33;;;10.30;99.90;;;;;;4960188;28;20252;-52
2021/11/14 07:40:45;;;;;;;37.47;19.77;;;10.30;99.90;;;;;;4978047;28;20604;-53
2021/11/14 07:43:12;;;;;;;33.90;19.17;;;10.20;99.90;;;;;;4979357;28;20287;-53
2021/11/14 07:45:39;;;;;;;31.27;17.13;;;10.30;99.90;;;;;;4977674;28;20243;-52
2021/11/14 07:48:07;;;;;;;36.17;19.57;;;10.30;99.90;;;;;;4977781;28;20199;-52
2021/11/14 07:50:34;;;;;;;35.03;17.67;;;10.20;99.90;;;;;;4977913;28;20305;-52
2021/11/14 07:53:02;;;;;;;37.87;20.03;;;10.30;99.90;;;;;;4980951;28;20235;-52
2021/11/14 07:55:31;;;;;;;34.17;19.50;;;10.30;99.90;;;;;;4977018;28;20672;-52
2021/11/14 07:58:04;;;;;;;32.53;19.20;;;10.20;99.90;;;;;;4979343;28;20294;-54
2021/11/14 08:00:31;;;;;;;32.50;18.73;;;10.20;99.90;;;;;;4979310;28;20206;-53
2021/11/14 08:02:59;;;;;;;36.10;19.93;;;10.20;99.90;;;;;;4977785;28;20294;-53
2021/11/14 08:05:28;;;;;;;33.57;18.47;;;10.20;99.90;;;;;;4978752;28;20223;-53
2021/11/14 08:07:55;;;;;;;35.23;18.57;;;10.30;99.90;;;;;;4978684;28;20266;-51
2021/11/14 08:10:23;;;;;;;30.77;18.80;;;10.40;99.90;;;;;;4980509;28;20247;-54
2021/11/14 08:12:49;;;;;;;28.97;17.03;;;10.40;99.90;;;;;;4977996;28;20232;-52
2021/11/14 08:15:18;;;;;;;29.77;17.23;;;10.40;99.90;;;;;;4981514;28;20320;-53
2021/11/14 08:17:45;;;;;;;30.97;17.07;;;10.30;99.90;;;;;;4983104;28;20666;-53
2021/11/14 08:20:12;;;;;;;28.37;16.37;;;10.30;99.90;;;;;;4983907;28;20761;-53
2021/11/14 08:22:40;;;;;;;29.73;17.00;;;10.30;99.90;;;;;;4980119;28;20231;-53
2021/11/14 08:25:08;;;;;;;29.20;16.77;;;10.40;99.90;;;;;;4981439;28;20248;-53
2021/11/14 08:27:37;;;;;;;29.03;16.70;;;10.30;99.90;;;;;;4980309;28;20575;-52
2021/11/14 08:30:07;;;;;;;29.17;17.93;;;10.30;99.90;;;;;;4980718;28;20409;-52
2021/11/14 08:32:34;;;;;;;27.60;15.23;;;10.20;99.90;;;;;;4980443;28;20200;-53
2021/11/14 08:35:01;;;;;;;27.50;16.20;;;10.20;99.90;;;;;;4981910;28;20376;-52
2021/11/14 08:37:28;;;;;;;27.23;15.77;;;10.20;99.90;;;;;;4976693;28;20195;-53
2021/11/14 08:39:55;;;;;;;25.03;15.43;;;10.20;99.90;;;;;;4980698;28;20240;-51
2021/11/14 08:42:23;;;;;;;28.17;16.60;;;10.20;99.90;;;;;;4976096;28;20230;-52
2021/11/14 08:44:51;;;;;;;26.17;15.80;;;10.10;99.90;;;;;;4979912;28;20244;-52
2021/11/14 08:47:18;;;;;;;24.77;14.63;;;10.10;99.90;;;;;;4962375;28;20215;-53
2021/11/14 08:49:45;;;;;;;25.93;15.20;;;10.00;99.90;;;;;;4961366;28;20243;-51
2021/11/14 08:52:12;;;;;;;23.47;14.27;;;10.00;99.90;;;;;;4961906;28;20685;-53
2021/11/14 08:54:42;;;;;;;24.63;14.40;;;10.00;99.90;;;;;;4979036;28;20204;-54
2021/11/14 08:57:10;;;;;;;21.97;14.27;;;10.10;99.90;;;;;;4976803;28;20201;-54
2021/11/14 08:59:38;;;;;;;23.53;14.00;;;10.00;99.90;;;;;;4979070;28;20927;-53
2021/11/14 09:02:05;;;;;;;22.83;14.17;;;10.00;99.90;;;;;;4977459;28;20212;-54
2021/11/14 09:04:33;;;;;;;23.70;14.13;;;10.10;99.90;;;;;;4979950;28;20209;-54
2021/11/14 09:07:00;;;;;;;23.53;14.33;;;10.10;99.90;;;;;;4975660;28;20270;-54
2021/11/14 09:09:27;;;;;;;23.03;13.70;;;10.10;99.90;;;;;;4978881;28;20301;-53
2021/11/14 09:11:55;;;;;;;18.83;12.80;;;10.10;99.90;;;;;;4978890;28;20302;-52
2021/11/14 09:14:23;;;;;;;21.37;12.90;;;10.20;99.90;;;;;;4979956;28;20238;-53
2021/11/14 09:16:53;;;;;;;21.93;13.17;;;10.10;99.90;;;;;;4979994;28;20293;-53
2021/11/14 09:19:21;;;;;;;25.10;14.30;;;10.20;99.90;;;;;;4980296;28;20239;-55
2021/11/14 09:21:49;;;;;;;21.77;13.03;;;10.30;99.90;;;;;;4978485;28;20238;-53
2021/11/14 09:24:16;;;;;;;20.20;12.43;;;10.30;99.90;;;;;;4963217;28;20317;-52
2021/11/14 09:26:43;;;;;;;23.13;13.33;;;10.30;99.90;;;;;;4978479;28;20236;-53
2021/11/14 09:29:12;;;;;;;24.07;14.17;;;10.30;99.90;;;;;;4978128;28;20238;-53
2021/11/14 09:31:40;;;;;;;21.23;12.97;;;10.30;99.90;;;;;;4979025;28;20281;-52
2021/11/14 09:34:07;;;;;;;22.53;13.87;;;10.30;99.90;;;;;;4977709;28;20205;-54
2021/11/14 09:36:35;;;;;;;23.17;13.40;;;10.30;99.90;;;;;;4977351;28;20223;-53
2021/11/14 09:39:09;;;;;;;22.47;14.40;;;10.20;99.90;;;;;;4975431;28;20986;-53
2021/11/14 09:41:46;;;;;;;23.23;13.57;;;10.30;99.90;;;;;;4975785;28;20207;-52
2021/11/14 09:44:16;;;;;;;22.10;13.67;;;10.40;99.90;;;;;;4984178;28;20744;-54
2021/11/14 09:47:00;;;;;;;25.67;15.97;;;10.30;99.90;;;;;;4982812;28;20220;-53
2021/11/14 09:49:30;;;;;;;21.17;13.20;;;10.40;99.90;;;;;;4989624;28;20271;-52
2021/11/14 09:52:00;;;;;;;26.87;14.57;;;10.50;99.90;;;;;;4992943;28;20249;-53
2021/11/14 09:54:28;;;;;;;21.67;13.70;;;10.40;99.90;;;;;;4985758;28;20199;-51
2021/11/14 09:56:56;;;;;;;25.13;14.97;;;10.40;99.90;;;;;;4990710;28;20252;-51
2021/11/14 09:59:24;;;;;;;25.53;15.17;;;10.40;99.90;;;;;;4985785;28;20220;-53
2021/11/14 10:01:53;;;;;;;27.50;16.53;;;10.50;99.90;;;;;;4989973;28;20214;-52
2021/11/14 10:04:21;;;;;;;23.33;14.13;;;10.60;99.90;;;;;;4989255;28;20203;-54
2021/11/14 10:07:09;;;;;;;26.73;14.77;;;10.60;99.90;;;;;;4970731;28;20217;-52
2021/11/14 10:09:50;;;;;;;25.00;15.40;;;10.60;99.90;;;;;;4990659;28;20229;-53
2021/11/14 10:12:24;;;;;;;25.47;15.33;;;10.50;99.90;;;;;;4991713;28;20204;-52
2021/11/14 10:15:17;;;;;;;25.27;14.70;;;10.50;99.90;;;;;;4985604;28;20206;-54
2021/11/14 10:17:55;;;;;;;25.00;15.43;;;10.30;99.90;;;;;;4983110;28;20544;-52
2021/11/14 10:20:34;;;;;;;23.90;14.90;;;10.40;99.90;;;;;;4980739;28;20778;-52
2021/11/14 10:23:12;;;;;;;24.30;14.87;;;10.50;99.90;;;;;;4986099;28;20254;-52
2021/11/14 10:25:41;;;;;;;23.83;14.97;;;10.50;99.90;;;;;;4988518;28;20372;-51
2021/11/14 10:28:08;;;;;;;25.43;14.93;;;10.50;99.90;;;;;;4986164;28;20238;-53
2021/11/14 10:30:40;;;;;;;25.03;14.80;;;10.50;99.90;;;;;;4989332;28;20590;-53
2021/11/14 10:33:09;;;;;;;22.13;13.83;;;10.50;99.90;;;;;;4982362;28;20276;-51
2021/11/14 10:35:39;;;;;;;25.57;15.93;;;10.60;99.90;;;;;;4990098;28;20287;-52
2021/11/14 10:38:09;;;;;;;24.43;14.93;;;10.60;99.90;;;;;;4988908;28;20578;-53
2021/11/14 10:40:42;;;;;;;24.50;14.80;;;10.60;99.90;;;;;;4986630;28;20679;-53
2021/11/14 10:43:08;;;;;;;21.63;14.00;;;10.80;99.90;;;;;;4989471;28;20237;-52
2021/11/14 10:45:39;;;;;;;27.03;15.40;;;10.80;99.90;;;;;;4986172;28;20292;-52
2021/11/14 10:48:18;;;;;;;23.33;13.67;;;10.80;99.90;;;;;;4990182;28;20675;-52
2021/11/14 10:50:49;;;;;;;24.87;14.73;;;10.80;99.90;;;;;;4985922;28;20282;-52
2021/11/14 10:53:19;;;;;;;20.97;13.27;;;10.80;99.90;;;;;;4988609;28;20651;-52
2021/11/14 10:55:50;;;;;;;22.87;14.73;;;10.80;99.90;;;;;;4986529;28;20307;-52
2021/11/14 10:58:18;;;;;;;25.13;16.20;;;10.80;99.90;;;;;;4986080;28;20198;-51
2021/11/14 11:00:48;;;;;;;25.30;14.20;;;10.90;99.90;;;;;;4985351;28;20293;-51
2021/11/14 11:03:15;;;;;;;23.77;13.97;;;10.90;99.90;;;;;;4984874;28;20703;-51
2021/11/14 11:05:43;;;;;;;24.10;15.20;;;10.80;99.90;;;;;;4990893;28;20285;-52
2021/11/14 11:08:12;;;;;;;20.90;14.33;;;10.80;99.90;;;;;;4984913;28;20285;-51
2021/11/14 11:10:45;;;;;;;24.83;14.37;;;10.80;99.90;;;;;;4985671;28;20250;-52
2021/11/14 11:13:15;;;;;;;22.57;14.27;;;10.80;99.90;;;;;;4987089;28;20233;-52
2021/11/14 11:15:51;;;;;;;21.47;13.70;;;10.80;99.90;;;;;;4980571;28;20254;-51
2021/11/14 11:18:20;;;;;;;21.23;13.87;;;10.90;99.90;;;;;;4982371;28;20237;-52
2021/11/14 11:20:53;;;;;;;21.50;13.83;;;11.00;99.90;;;;;;4989235;28;20237;-51
2021/11/14 11:23:22;;;;;;;21.17;13.13;;;11.00;99.90;;;;;;4984076;28;20874;-52
2021/11/14 11:25:54;;;;;;;21.80;14.00;;;11.10;99.90;;;;;;4980858;28;20327;-53
2021/11/14 11:28:26;;;;;;;22.00;13.93;;;11.00;99.90;;;;;;4988240;28;20212;-53
2021/11/14 11:30:58;;;;;;;20.70;13.60;;;11.10;99.90;;;;;;4983438;28;20217;-52
2021/11/14 11:33:27;;;;;;;20.73;13.73;;;11.10;99.90;;;;;;4986033;28;20237;-51
2021/11/14 11:35:55;;;;;;;19.53;12.83;;;11.00;99.90;;;;;;4969169;28;20814;-52
2021/11/14 11:38:24;;;;;;;19.73;13.37;;;11.20;99.90;;;;;;4972367;28;20274;-52
2021/11/14 11:40:53;;;;;;;20.67;13.20;;;11.10;99.90;;;;;;4979796;28;20308;-51
2021/11/14 11:43:20;;;;;;;21.77;12.60;;;11.10;99.90;;;;;;4982863;28;20818;-51
2021/11/14 11:45:49;;;;;;;19.00;12.90;;;11.30;99.90;;;;;;4980099;28;20889;-50
2021/11/14 11:48:16;;;;;;;20.73;13.53;;;11.30;99.90;;;;;;4979250;28;20224;-52
2021/11/14 11:50:43;;;;;;;19.83;13.37;;;11.40;99.90;;;;;;4984883;28;20246;-53
2021/11/14 11:53:40;;;;;;;19.27;12.87;;;11.50;99.90;;;;;;4983898;28;20298;-52
2021/11/14 11:56:07;;;;;;;16.80;12.30;;;11.60;99.90;;;;;;4976154;28;20219;-61
2021/11/14 11:58:44;;;;;;;17.17;12.27;;;11.60;99.90;;;;;;4978305;28;20213;-60
2021/11/14 12:01:34;;;;;;;17.83;11.63;;;11.60;99.90;;;;;;4983299;28;20202;-60
2021/11/14 12:04:14;;;;;;;15.93;11.33;;;11.50;99.90;;;;;;4981108;28;20889;-52
2021/11/14 12:06:58;;;;;;;15.67;11.07;;;11.50;99.90;;;;;;4979050;28;22166;-52
2021/11/14 12:09:34;;;;;;;15.43;11.80;;;11.50;99.90;;;;;;4973134;28;22326;-52
2021/11/14 12:12:01;;;;;;;20.83;11.43;;;11.50;99.90;;;;;;4980009;28;20232;-52
2021/11/14 12:14:31;;;;;;;16.10;11.93;;;11.60;99.90;;;;;;4980561;28;20300;-54
2021/11/14 12:17:05;;;;;;;16.27;11.43;;;11.70;99.90;;;;;;4981896;28;20204;-53
2021/11/14 12:19:35;;;;;;;21.20;12.90;;;11.60;99.90;;;;;;4990316;28;20263;-51
2021/11/14 12:22:05;;;;;;;16.40;10.90;;;11.70;99.90;;;;;;4988529;28;20295;-53
2021/11/14 12:24:53;;;;;;;16.27;12.23;;;11.60;99.90;;;;;;4987979;28;20288;-53
2021/11/14 12:27:34;;;;;;;16.20;11.80;;;11.60;99.90;;;;;;4980048;28;20238;-54
2021/11/14 12:30:09;;;;;;;19.03;13.53;;;11.70;99.90;;;;;;4982488;28;20250;-52
2021/11/14 12:32:50;;;;;;;17.43;12.07;;;12.00;99.90;;;;;;4986036;28;20230;-51
2021/11/14 12:35:21;;;;;;;18.00;11.70;;;12.40;99.90;;;;;;4984179;28;20200;-51
2021/11/14 12:38:11;;;;;;;15.90;11.87;;;12.50;99.90;;;;;;4974465;28;20723;-51
2021/11/14 12:40:45;;;;;;;15.97;10.43;;;12.40;99.90;;;;;;4982742;28;20212;-52
2021/11/14 12:43:17;;;;;;;16.60;11.33;;;12.50;99.90;;;;;;4980889;28;20311;-51